Time;durP1;ratioP1;P1;durP2;ratioP2;P2;SDS_P1;SDS_P2;PMS_P1;PMS_P2;Temp;Humidity;BMP_temperature;BMP_pressure;BME280_temperature;BME280_humidity;BME280_pressure;Samples;Min_cycle;Max_cycle;Signal;HPM_P1;HPM_P2
2021/04/01 00:00:59;;;;;;;11.43;4.53;;;;;;;11.19;51.04;99731.69;5013646;28;20104;-62
2021/04/01 00:03:25;;;;;;;9.90;4.53;;;;;;;10.78;52.87;99730.72;5014091;28;20429;-62
2021/04/01 00:05:50;;;;;;;7.45;4.40;;;;;;;10.42;53.90;99727.16;5013456;28;20492;-62
2021/04/01 00:08:16;;;;;;;8.93;4.22;;;;;;;10.68;52.80;99725.09;5013866;28;20057;-62
2021/04/01 00:10:43;;;;;;;13.65;4.95;;;;;;;10.88;53.88;99724.78;5011875;28;20049;-62
2021/04/01 00:13:08;;;;;;;10.57;4.20;;;;;;;10.74;52.63;99718.84;5012404;28;20062;-63
2021/04/01 00:15:35;;;;;;;7.88;4.20;;;;;;;10.60;53.37;99717.41;5013277;28;20046;-62
2021/04/01 00:18:00;;;;;;;10.40;4.53;;;;;;;10.73;53.11;99711.81;5013702;28;20030;-62
2021/04/01 00:20:27;;;;;;;11.32;4.55;;;;;;;10.66;53.24;99708.44;5013300;28;20396;-62
2021/04/01 00:22:53;;;;;;;17.23;8.40;;;;;;;10.51;53.65;99707.03;5013512;28;20421;-62
2021/04/01 00:25:18;;;;;;;9.52;5.15;;;;;;;10.20;55.14;99707.25;5012906;28;20026;-63
2021/04/01 00:27:44;;;;;;;10.00;5.28;;;;;;;10.05;57.18;99699.63;5013541;28;20022;-61
2021/04/01 00:30:10;;;;;;;8.93;4.13;;;;;;;10.07;57.05;99701.03;5012942;28;20030;-61
2021/04/01 00:32:35;;;;;;;6.93;4.47;;;;;;;9.84;57.85;99703.63;5013454;28;20101;-62
2021/04/01 00:35:01;;;;;;;9.25;4.20;;;;;;;9.85;57.63;99705.25;5011520;28;20026;-61
2021/04/01 00:37:26;;;;;;;8.18;3.72;;;;;;;9.80;58.23;99705.13;5012213;28;20034;-61
2021/04/01 00:39:51;;;;;;;10.10;4.20;;;;;;;9.86;58.18;99702.38;5013299;28;20033;-61
2021/04/01 00:42:17;;;;;;;6.63;3.67;;;;;;;9.91;57.77;99705.19;5013086;28;20034;-61
2021/04/01 00:44:42;;;;;;;8.00;3.88;;;;;;;10.10;57.32;99700.56;5013335;28;20037;-61
2021/04/01 00:47:08;;;;;;;6.75;3.92;;;;;;;10.05;57.34;99697.75;5012704;28;20034;-61
2021/04/01 00:49:36;;;;;;;8.70;4.03;;;;;;;10.29;56.58;99705.94;5011895;28;20382;-61
2021/04/01 00:52:01;;;;;;;13.82;4.57;;;;;;;10.18;56.70;99703.97;5012333;28;20121;-61
2021/04/01 00:54:27;;;;;;;7.45;4.38;;;;;;;9.85;58.13;99700.72;5012959;28;20053;-61
2021/04/01 00:56:52;;;;;;;8.40;4.05;;;;;;;9.66;59.28;99702.63;5012687;28;20045;-61
2021/04/01 00:59:18;;;;;;;7.55;4.30;;;;;;;9.60;59.72;99702.69;5011801;28;20022;-62
2021/04/01 01:01:48;;;;;;;6.80;3.47;;;;;;;9.62;61.35;99700.59;4994959;28;20033;-61
2021/04/01 01:04:14;;;;;;;9.75;4.30;;;;;;;9.48;59.25;99691.91;5013008;28;20030;-61
2021/04/01 01:06:40;;;;;;;8.68;4.10;;;;;;;9.71;57.94;99694.72;4994814;28;20507;-61
2021/04/01 01:09:06;;;;;;;9.60;4.43;;;;;;;9.65;58.37;99694.78;5012516;28;20046;-61
2021/04/01 01:11:33;;;;;;;8.13;4.53;;;;;;;9.52;59.00;99687.75;5012404;28;20044;-61
2021/04/01 01:14:00;;;;;;;6.78;4.45;;;;;;;9.83;57.19;99685.91;5012919;28;20036;-61
2021/04/01 01:16:25;;;;;;;9.30;4.53;;;;;;;9.84;57.19;99684.91;5010917;28;20385;-61
2021/04/01 01:18:50;;;;;;;14.55;5.30;;;;;;;9.45;59.06;99687.00;5012829;28;20041;-61
2021/04/01 01:21:16;;;;;;;8.98;5.10;;;;;;;9.01;60.50;99688.91;5010911;28;20121;-61
2021/04/01 01:23:41;;;;;;;9.07;4.63;;;;;;;8.89;61.49;99696.03;5012456;28;20026;-61
2021/04/01 01:26:07;;;;;;;11.98;5.28;;;;;;;8.49;63.20;99699.88;5012084;28;20045;-61
2021/04/01 01:28:32;;;;;;;9.43;4.85;;;;;;;8.63;62.61;99703.22;5012604;28;20084;-61
2021/04/01 01:30:58;;;;;;;15.15;4.70;;;;;;;9.03;61.01;99692.19;5012275;28;20558;-61
2021/04/01 01:33:24;;;;;;;9.90;5.13;;;;;;;9.16;59.60;99696.56;5012502;28;20018;-61
2021/04/01 01:35:52;;;;;;;10.45;4.30;;;;;;;9.24;59.53;99694.44;5012005;28;20519;-61
2021/04/01 01:38:17;;;;;;;9.93;4.72;;;;;;;9.35;59.33;99700.09;5012311;28;20468;-63
2021/04/01 01:40:43;;;;;;;10.23;5.38;;;;;;;9.41;58.57;99693.84;5011986;28;20077;-61
2021/04/01 01:43:10;;;;;;;10.00;5.05;;;;;;;9.48;58.70;99692.75;5012548;28;20018;-62
2021/04/01 01:45:36;;;;;;;9.18;5.05;;;;;;;9.23;60.14;99692.78;5012288;28;20038;-61
2021/04/01 01:48:02;;;;;;;13.27;4.95;;;;;;;9.20;59.91;99697.78;5012161;28;20104;-61
2021/04/01 01:50:32;;;;;;;13.50;4.95;;;;;;;9.06;60.44;99689.91;5012190;28;20549;-61
2021/04/01 01:52:57;;;;;;;16.23;5.43;;;;;;;8.90;61.08;99698.47;5011185;28;20036;-61
2021/04/01 01:55:23;;;;;;;8.35;5.10;;;;;;;8.64;62.18;99692.34;5012119;28;20472;-63
2021/04/01 01:57:48;;;;;;;8.85;5.25;;;;;;;8.74;61.75;99691.03;5012500;28;20025;-63
2021/04/01 02:00:14;;;;;;;7.10;4.15;;;;;;;9.17;60.14;99683.00;5012042;28;20385;-63
2021/04/01 02:02:40;;;;;;;9.98;4.88;;;;;;;9.13;60.19;99678.31;5012264;28;20476;-63
2021/04/01 02:05:06;;;;;;;8.20;4.53;;;;;;;9.22;60.39;99679.66;4997357;28;20033;-63
2021/04/01 02:07:32;;;;;;;12.10;5.00;;;;;;;9.21;60.55;99680.69;5014602;28;20040;-61
2021/04/01 02:09:58;;;;;;;9.63;4.95;;;;;;;9.24;60.41;99673.03;5015890;28;20132;-61
2021/04/01 02:12:23;;;;;;;9.93;5.13;;;;;;;8.80;62.01;99676.78;5015469;28;20045;-61
2021/04/01 02:14:48;;;;;;;9.48;5.20;;;;;;;8.63;62.77;99677.31;5015852;28;20018;-61
2021/04/01 02:17:21;;;;;;;9.35;5.30;;;;;;;8.45;63.49;99679.94;5014161;28;20492;-61
2021/04/01 02:19:46;;;;;;;9.88;5.38;;;;;;;8.35;65.32;99685.75;5014596;28;20084;-61
2021/04/01 02:22:12;;;;;;;8.40;5.35;;;;;;;8.38;63.80;99685.31;5015312;28;20042;-61
2021/04/01 02:24:37;;;;;;;9.70;5.55;;;;;;;8.19;64.19;99688.94;5014702;28;20076;-61
2021/04/01 02:27:03;;;;;;;12.02;5.18;;;;;;;8.62;63.14;99685.56;5014020;28;20072;-61
2021/04/01 02:29:28;;;;;;;10.43;5.53;;;;;;;8.70;63.13;99682.63;5015604;28;20036;-61
2021/04/01 02:31:53;;;;;;;9.52;5.68;;;;;;;8.92;62.33;99679.56;5013848;28;20034;-61
2021/04/01 02:34:19;;;;;;;16.52;5.75;;;;;;;8.92;62.05;99682.22;5015471;28;20041;-61
2021/04/01 02:36:45;;;;;;;12.10;5.80;;;;;;;8.80;62.86;99682.13;5015084;28;20033;-61
2021/04/01 02:39:11;;;;;;;14.75;5.88;;;;;;;8.72;62.40;99688.56;5015437;28;20049;-61
2021/04/01 02:41:36;;;;;;;11.88;5.45;;;;;;;8.40;64.36;99693.13;5013724;28;20045;-61
2021/04/01 02:44:02;;;;;;;10.73;5.47;;;;;;;8.12;65.37;99688.16;5014312;28;20363;-61
2021/04/01 02:46:27;;;;;;;10.82;5.78;;;;;;;8.45;65.85;99687.16;5014903;28;20042;-61
2021/04/01 02:48:53;;;;;;;13.27;5.90;;;;;;;8.47;64.11;99683.22;5015255;28;20025;-61
2021/04/01 02:51:18;;;;;;;7.65;5.10;;;;;;;8.59;65.86;99686.03;5014735;28;20034;-61
2021/04/01 02:53:43;;;;;;;10.60;6.10;;;;;;;8.63;64.82;99676.50;5015530;28;20030;-61
2021/04/01 02:56:09;;;;;;;11.82;5.72;;;;;;;8.67;63.08;99682.25;5013406;28;20041;-61
2021/04/01 02:58:35;;;;;;;11.88;5.88;;;;;;;8.37;64.18;99685.53;5015242;28;20436;-61
2021/04/01 03:01:00;;;;;;;15.07;7.00;;;;;;;8.22;64.69;99680.50;5013374;28;20500;-62
2021/04/01 03:03:35;;;;;;;10.75;6.03;;;;;;;7.90;66.31;99677.00;5013703;28;20033;-61
2021/04/01 03:06:02;;;;;;;8.95;5.70;;;;;;;8.70;63.17;99671.94;5014585;28;20034;-62
2021/04/01 03:08:27;;;;;;;11.27;6.78;;;;;;;8.68;63.01;99679.34;5014717;28;20033;-62
2021/04/01 03:10:53;;;;;;;16.00;8.65;;;;;;;8.14;64.50;99673.56;5014654;28;20049;-62
2021/04/01 03:13:18;;;;;;;13.88;6.90;;;;;;;8.02;65.07;99672.63;5014812;28;20472;-62
2021/04/01 03:15:44;;;;;;;14.70;6.93;;;;;;;7.69;66.77;99659.47;5014064;28;20038;-62
2021/04/01 03:18:09;;;;;;;11.18;7.03;;;;;;;7.71;66.56;99678.72;5014778;28;20026;-62
2021/04/01 03:20:34;;;;;;;18.42;7.82;;;;;;;7.60;67.48;99676.75;5014346;28;20041;-62
2021/04/01 03:23:00;;;;;;;15.85;8.57;;;;;;;7.57;67.91;99673.47;5014597;28;20030;-62
2021/04/01 03:25:25;;;;;;;19.15;7.68;;;;;;;7.89;66.77;99670.84;5014339;28;20042;-62
2021/04/01 03:27:51;;;;;;;12.05;7.35;;;;;;;7.89;66.78;99668.19;5014543;28;20018;-62
2021/04/01 03:30:16;;;;;;;10.50;6.15;;;;;;;8.27;65.14;99661.97;5014029;28;20030;-62
2021/04/01 03:32:43;;;;;;;15.25;6.25;;;;;;;8.32;65.32;99656.81;5013112;28;20030;-61
2021/04/01 03:35:10;;;;;;;13.32;5.80;;;;;;;8.26;64.25;99654.97;5014272;28;20018;-62
2021/04/01 03:37:36;;;;;;;10.15;6.13;;;;;;;7.96;65.92;99657.44;5014309;28;20105;-62
2021/04/01 03:40:02;;;;;;;11.50;6.90;;;;;;;7.80;69.04;99671.31;5013933;28;20032;-62
2021/04/01 03:42:28;;;;;;;12.68;5.75;;;;;;;7.48;67.86;99668.56;5014210;28;20384;-62
2021/04/01 03:44:54;;;;;;;12.80;6.85;;;;;;;7.17;69.52;99672.78;5014071;28;20026;-61
2021/04/01 03:47:19;;;;;;;12.98;6.72;;;;;;;7.32;69.15;99669.88;5013384;28;20114;-62
2021/04/01 03:49:45;;;;;;;13.05;7.20;;;;;;;7.55;68.38;99674.69;5014385;28;20341;-62
2021/04/01 03:52:10;;;;;;;10.00;6.43;;;;;;;8.00;66.32;99672.81;5012308;28;20052;-62
2021/04/01 03:54:36;;;;;;;10.73;6.45;;;;;;;7.93;68.15;99676.56;5013018;28;20034;-62
2021/04/01 03:57:02;;;;;;;12.65;7.07;;;;;;;8.01;69.05;99678.97;5012276;28;20037;-62
2021/04/01 03:59:34;;;;;;;18.13;7.43;;;;;;;8.05;66.76;99682.06;5014139;28;20036;-62
2021/04/01 04:14:50;;;;;;;10.15;6.00;;;;;;;8.00;67.92;99688.84;5013760;28;20030;-62
2021/04/01 04:17:16;;;;;;;9.10;6.22;;;;;;;8.00;68.02;99680.81;5013131;28;20042;-62
2021/04/01 04:19:41;;;;;;;12.40;6.22;;;;;;;7.84;67.80;99684.03;5013902;28;20026;-62
2021/04/01 04:22:08;;;;;;;15.48;5.82;;;;;;;8.04;66.60;99683.06;5013261;28;20337;-62
2021/04/01 04:24:36;;;;;;;12.75;6.75;;;;;;;8.04;66.46;99688.41;5012971;28;20030;-62
2021/04/01 04:27:16;;;;;;;15.60;6.70;;;;;;;7.78;67.47;99684.84;5012049;28;20520;-62
2021/04/01 04:29:41;;;;;;;11.00;6.28;;;;;;;7.65;67.55;99684.94;5012580;28;20034;-62
2021/04/01 04:32:07;;;;;;;13.75;6.00;;;;;;;7.51;68.30;99685.00;5011828;28;20041;-62
2021/04/01 04:34:32;;;;;;;14.07;5.95;;;;;;;7.27;69.29;99688.34;5012372;28;20464;-62
2021/04/01 04:36:58;;;;;;;13.90;6.60;;;;;;;7.27;69.37;99694.50;5012085;28;20046;-62
2021/04/01 04:39:24;;;;;;;11.48;7.05;;;;;;;7.06;70.75;99686.75;4996463;28;20022;-63
2021/04/01 04:41:49;;;;;;;10.38;6.28;;;;;;;7.38;71.94;99695.69;5013215;28;20443;-62
2021/04/01 04:44:15;;;;;;;12.30;6.25;;;;;;;7.32;69.34;99692.00;5013696;28;20428;-62
2021/04/01 04:46:40;;;;;;;14.75;7.40;;;;;;;7.63;69.56;99692.31;5013063;28;20382;-61
2021/04/01 04:49:05;;;;;;;23.40;8.30;;;;;;;7.70;69.00;99685.09;5013449;28;20511;-60
2021/04/01 04:51:31;;;;;;;17.75;7.32;;;;;;;7.84;67.67;99688.50;5012862;28;20030;-61
2021/04/01 04:53:56;;;;;;;11.50;6.38;;;;;;;7.68;68.03;99692.50;5013339;28;20105;-61
2021/04/01 04:56:24;;;;;;;17.27;6.90;;;;;;;7.59;68.93;99691.94;5012782;28;20041;-61
2021/04/01 05:06:51;;;;;;;19.70;7.35;;;;;;;7.43;69.65;99692.38;5012599;28;20052;-61
2021/04/01 05:09:16;;;;;;;10.88;6.65;;;;;;;7.29;70.08;99687.09;5012946;28;20575;-61
2021/04/01 05:11:41;;;;;;;13.52;7.35;;;;;;;7.50;70.44;99693.19;5012505;28;20106;-61
2021/04/01 05:14:07;;;;;;;18.48;8.32;;;;;;;7.61;70.60;99691.69;5012254;28;20029;-63
2021/04/01 05:16:32;;;;;;;13.75;7.05;;;;;;;7.49;69.03;99687.03;5012849;28;20041;-64
2021/04/01 05:19:03;;;;;;;14.18;7.18;;;;;;;7.48;68.92;99680.06;5013096;28;20022;-63
2021/04/01 05:24:02;;;;;;;10.82;6.28;;;;;;;7.49;68.88;99691.56;5013849;28;20356;-62
2021/04/01 05:29:17;;;;;;;13.18;6.13;;;;;;;7.43;68.99;99695.88;5013713;28;20431;-62
2021/04/01 05:31:42;;;;;;;14.63;6.22;;;;;;;7.64;68.64;99709.94;5011735;28;20504;-62
2021/04/01 05:34:09;;;;;;;18.98;7.22;;;;;;;7.60;72.31;99714.09;5012619;28;20029;-62
2021/04/01 05:36:45;;;;;;;11.90;7.15;;;;;;;7.72;67.85;99713.22;5012830;28;20065;-62
2021/04/01 05:39:15;;;;;;;12.27;6.95;;;;;;;7.86;67.99;99723.81;5015924;28;20469;-62
2021/04/01 05:41:41;;;;;;;12.45;6.20;;;;;;;7.99;67.59;99718.44;5009275;28;20448;-62
2021/04/01 05:46:41;;;;;;;14.25;6.90;;;;;;;8.08;67.12;99721.66;5014969;28;20037;-62
2021/04/01 05:52:18;;;;;;;13.27;7.85;;;;;;;8.17;66.82;99723.06;5015111;28;20034;-62
2021/04/01 06:05:53;;;;;;;16.48;6.72;;;;;;;8.42;67.17;99736.47;5015901;28;20042;-62
2021/04/01 06:08:22;;;;;;;14.23;5.97;;;;;;;8.83;65.30;99741.28;5016225;28;20037;-63
2021/04/01 06:10:50;;;;;;;13.13;6.55;;;;;;;8.93;65.86;99740.00;5015779;28;20046;-62
2021/04/01 06:13:16;;;;;;;12.02;6.13;;;;;;;9.09;64.29;99744.00;5015158;28;20064;-62
2021/04/01 06:15:47;;;;;;;14.52;6.75;;;;;;;9.26;63.81;99745.88;5016033;28;20516;-62
2021/04/01 06:18:17;;;;;;;12.40;7.03;;;;;;;8.69;65.02;99747.81;5015282;28;20029;-63
2021/04/01 06:20:46;;;;;;;17.63;7.80;;;;;;;8.99;63.47;99747.16;5015707;28;20046;-62
2021/04/01 06:23:16;;;;;;;15.73;7.07;;;;;;;8.78;64.33;99749.16;5016038;28;20112;-62
2021/04/01 06:25:42;;;;;;;11.47;6.53;;;;;;;8.41;66.45;99742.84;5014142;28;20049;-62
2021/04/01 06:28:12;;;;;;;23.25;7.25;;;;;;;8.16;68.31;99745.44;4982058;28;20030;-62
2021/04/01 06:30:52;;;;;;;12.90;7.13;;;;;;;8.72;65.63;99749.22;4998170;28;20408;-62
2021/04/01 06:33:22;;;;;;;15.82;6.88;;;;;;;8.46;67.58;99751.03;5015960;28;20058;-62
2021/04/01 06:36:03;;;;;;;17.85;7.05;;;;;;;8.91;65.60;99747.41;5014410;28;20124;-62
2021/04/01 06:38:34;;;;;;;21.70;7.32;;;;;;;9.04;65.83;99736.63;5016099;28;20021;-62
2021/04/01 06:41:03;;;;;;;21.25;6.75;;;;;;;9.25;64.12;99743.41;5015431;28;20548;-62
2021/04/01 06:44:02;;;;;;;12.98;6.70;;;;;;;9.58;64.89;99739.56;5014211;28;20036;-61
2021/04/01 06:46:30;;;;;;;10.82;6.60;;;;;;;9.61;63.85;99741.78;5013570;28;20042;-62
2021/04/01 06:51:44;;;;;;;14.52;7.13;;;;;;;9.60;63.58;99746.31;5014967;28;20034;-62
2021/04/01 06:59:36;;;;;;;11.15;6.35;;;;;;;9.20;65.29;99756.63;5014376;28;20018;-62
2021/04/01 07:02:13;;;;;;;15.82;7.10;;;;;;;9.48;67.44;99754.28;4999696;28;20046;-62
2021/04/01 07:04:40;;;;;;;16.35;6.60;;;;;;;9.74;64.23;99751.53;5014142;28;20547;-62
2021/04/01 07:07:08;;;;;;;19.95;6.72;;;;;;;9.88;62.87;99761.03;5013502;28;20042;-62
2021/04/01 07:12:11;;;;;;;16.48;7.38;;;;;;;10.40;59.94;99750.69;5014730;28;20068;-62
2021/04/01 07:14:40;;;;;;;14.02;6.85;;;;;;;10.83;58.50;99749.59;5015067;28;20468;-62
2021/04/01 07:17:10;;;;;;;14.55;7.80;;;;;;;11.21;57.12;99762.59;5014674;28;20037;-62
2021/04/01 07:47:28;;;;;;;20.63;7.95;;;;;;;14.32;50.60;99764.56;4977476;28;20070;-61
2021/04/01 07:49:55;;;;;;;22.70;7.83;;;;;;;13.25;53.11;99766.69;4994972;28;20110;-61
2021/04/01 07:52:26;;;;;;;21.95;7.68;;;;;;;13.28;53.74;99768.91;4994671;28;20027;-64
2021/04/01 08:00:26;;;;;;;21.48;7.38;;;;;;;13.14;55.19;99768.41;5012781;28;20465;-62
2021/04/01 08:05:33;;;;;;;29.77;8.73;;;;;;;13.09;54.29;99766.47;5013420;28;20331;-62
2021/04/01 08:08:05;;;;;;;25.25;9.40;;;;;;;12.98;54.57;99778.13;5014426;28;20030;-62
2021/04/01 08:10:34;;;;;;;30.60;8.95;;;;;;;13.12;54.10;99776.72;5012167;28;20504;-62
2021/04/01 08:13:04;;;;;;;34.90;8.10;;;;;;;13.26;53.39;99781.78;5012871;28;20080;-62
2021/04/01 08:15:35;;;;;;;30.35;7.70;;;;;;;13.65;51.76;99782.63;5013513;28;20057;-62
2021/04/01 08:18:22;;;;;;;28.48;7.43;;;;;;;14.26;49.92;99785.25;5013820;28;20061;-62
2021/04/01 08:20:58;;;;;;;27.80;8.07;;;;;;;14.85;47.70;99777.25;4998384;28;20492;-62
2021/04/01 08:28:47;;;;;;;35.90;8.73;;;;;;;15.39;46.08;99773.56;4996590;28;20037;-62
2021/04/01 08:36:23;;;;;;;26.92;8.57;;;;;;;16.78;43.09;99775.72;5012196;28;20042;-62
2021/04/01 08:38:49;;;;;;;30.77;9.23;;;;;;;16.55;44.33;99771.63;5013617;28;20034;-62
2021/04/01 08:41:35;;;;;;;32.70;7.90;;;;;;;16.66;43.85;99756.19;5011914;28;20044;-62
2021/04/01 08:44:35;;;;;;;20.90;8.20;;;;;;;17.04;43.20;99768.41;5003147;28;20472;-62
2021/04/01 08:47:09;;;;;;;18.77;8.10;;;;;;;17.64;42.74;99765.84;5012949;28;20042;-62
2021/04/01 08:49:41;;;;;;;19.70;7.15;;;;;;;17.95;41.58;99765.78;5013263;28;20112;-62
2021/04/01 08:52:33;;;;;;;23.30;8.15;;;;;;;17.83;41.57;99757.94;5011776;28;20516;-62
2021/04/01 08:55:15;;;;;;;29.42;7.85;;;;;;;18.77;40.44;99756.34;5012300;28;20022;-62
2021/04/01 08:58:09;;;;;;;18.73;7.22;;;;;;;18.68;41.12;99750.69;5011816;28;20046;-62
2021/04/01 09:00:34;;;;;;;18.25;7.88;;;;;;;19.13;40.35;99757.66;5011744;28;20095;-62
2021/04/01 09:03:00;;;;;;;27.70;8.52;;;;;;;19.70;39.05;99748.94;5012028;28;20025;-62
2021/04/01 09:05:26;;;;;;;24.42;7.47;;;;;;;19.59;39.56;99743.59;5011583;28;20396;-62
2021/04/01 09:08:02;;;;;;;23.63;8.70;;;;;;;18.88;41.44;99757.88;4995421;28;20026;-62
2021/04/01 09:12:59;;;;;;;26.02;11.55;;;;;;;19.71;36.96;99758.72;5011745;28;20033;-62
2021/04/01 09:17:50;;;;;;;36.78;15.68;;;;;;;20.06;34.42;99762.09;5013151;28;20495;-62
2021/04/01 09:20:20;;;;;;;25.20;14.95;;;;;;;20.57;33.92;99766.84;5011394;28;20480;-63
2021/04/01 09:22:50;;;;;;;34.78;15.65;;;;;;;20.42;34.26;99765.94;5012986;28;20037;-62
2021/04/01 09:25:16;;;;;;;37.97;16.10;;;;;;;21.22;33.16;99769.59;5011368;28;20022;-62
2021/04/01 09:27:49;;;;;;;33.60;15.32;;;;;;;21.62;32.55;99769.97;5013123;28;20037;-62
2021/04/01 09:30:15;;;;;;;39.00;17.38;;;;;;;21.06;33.22;99769.03;5012510;28;20041;-62
2021/04/01 09:32:41;;;;;;;49.13;18.38;;;;;;;21.12;32.86;99772.50;5012892;28;20029;-62
2021/04/01 09:35:08;;;;;;;47.80;17.67;;;;;;;21.76;32.02;99765.28;5011369;28;20030;-63
2021/04/01 09:37:33;;;;;;;43.70;18.55;;;;;;;20.76;33.42;99759.44;4994631;28;20392;-63
2021/04/01 09:40:12;;;;;;;44.70;19.92;;;;;;;19.91;35.25;99760.38;5011737;28;20026;-62
2021/04/01 09:42:46;;;;;;;51.50;19.05;;;;;;;20.58;34.16;99760.28;5012395;28;20136;-63
2021/04/01 09:45:25;;;;;;;48.50;18.90;;;;;;;21.46;33.40;99763.16;5012277;28;20485;-62
2021/04/01 09:47:51;;;;;;;43.42;20.23;;;;;;;22.36;32.23;99771.72;5011986;28;20044;-63
2021/04/01 09:50:16;;;;;;;58.33;20.40;;;;;;;21.83;32.89;99764.91;5011436;28;20037;-63
2021/04/01 09:53:00;;;;;;;65.95;21.45;;;;;;;20.65;34.92;99766.19;5011560;28;20032;-63
2021/04/01 09:55:33;;;;;;;56.38;21.13;;;;;;;20.94;34.82;99759.72;5012341;28;20045;-63
2021/04/01 09:57:58;;;;;;;58.95;20.98;;;;;;;22.05;32.67;99771.56;4995840;28;20107;-63
2021/04/01 10:00:36;;;;;;;59.95;19.60;;;;;;;22.38;33.77;99764.03;4994614;28;20042;-62
2021/04/01 10:03:11;;;;;;;52.40;23.67;;;;;;;21.98;32.91;99769.22;5012482;28;20068;-62
2021/04/01 10:05:48;;;;;;;58.30;22.10;;;;;;;22.77;31.56;99765.31;5010880;28;20045;-62
2021/04/01 10:08:35;;;;;;;55.13;21.27;;;;;;;23.91;29.60;99764.78;5011214;28;20068;-62
2021/04/01 10:11:08;;;;;;;65.45;24.38;;;;;;;23.24;30.57;99771.25;5012219;28;20405;-62
2021/04/01 10:13:33;;;;;;;61.40;24.45;;;;;;;23.16;30.29;99759.13;5012942;28;20080;-63
2021/04/01 10:15:58;;;;;;;57.53;25.25;;;;;;;23.01;29.25;99759.53;5011413;28;20485;-63
2021/04/01 10:18:31;;;;;;;59.38;26.08;;;;;;;21.72;30.49;99769.75;4995315;28;20038;-62
2021/04/01 10:21:01;;;;;;;52.30;24.25;;;;;;;22.26;29.83;99750.09;5010665;28;20373;-62
2021/04/01 10:23:27;;;;;;;49.35;23.08;;;;;;;23.16;27.51;99750.13;5012610;28;20113;-62
2021/04/01 10:26:01;;;;;;;56.20;22.80;;;;;;;22.99;27.10;99746.19;5013207;28;20038;-62
2021/04/01 10:28:33;;;;;;;51.95;21.73;;;;;;;21.88;28.40;99745.69;5015871;28;20112;-62
2021/04/01 10:31:06;;;;;;;46.90;21.88;;;;;;;21.73;29.80;99741.34;5014529;28;20044;-63
2021/04/01 10:33:33;;;;;;;47.33;23.30;;;;;;;21.42;29.17;99743.09;5014795;28;20026;-63
2021/04/01 10:36:02;;;;;;;46.72;21.92;;;;;;;22.56;27.92;99749.38;5014662;28;20038;-62
2021/04/01 10:38:28;;;;;;;47.00;22.20;;;;;;;21.91;28.69;99747.81;5015094;28;20018;-64
2021/04/01 10:40:55;;;;;;;47.72;21.23;;;;;;;22.38;28.34;99748.44;5015012;28;20510;-63
2021/04/01 10:43:20;;;;;;;44.83;21.30;;;;;;;23.11;27.42;99742.06;5015632;28;20352;-63
2021/04/01 10:45:46;;;;;;;46.75;21.50;;;;;;;23.15;27.04;99737.59;5015159;28;20057;-63
2021/04/01 10:48:18;;;;;;;48.88;21.27;;;;;;;24.18;26.30;99730.84;5013967;28;20034;-64
2021/04/01 10:50:43;;;;;;;48.95;20.80;;;;;;;23.75;26.75;99728.84;5015058;28;20120;-63
2021/04/01 10:53:20;;;;;;;44.90;20.23;;;;;;;24.05;26.38;99721.66;5013925;28;20018;-62
2021/04/01 10:55:45;;;;;;;44.15;19.90;;;;;;;23.61;25.92;99717.16;5014878;28;20067;-62
2021/04/01 10:58:11;;;;;;;45.28;19.38;;;;;;;23.61;26.52;99717.16;5015354;28;20439;-62
2021/04/01 11:00:37;;;;;;;39.55;17.50;;;;;;;23.60;25.79;99710.09;5014811;28;20037;-62
2021/04/01 11:03:04;;;;;;;41.17;17.70;;;;;;;23.74;26.13;99704.53;5015144;28;20484;-62
2021/04/01 11:05:35;;;;;;;42.50;17.27;;;;;;;22.60;28.00;99708.63;5014781;28;20060;-62
2021/04/01 11:08:11;;;;;;;40.97;16.90;;;;;;;23.84;25.86;99704.25;5015038;28;20116;-62
2021/04/01 11:10:36;;;;;;;39.38;16.25;;;;;;;23.67;26.02;99696.75;5014448;28;20416;-62
2021/04/01 11:13:03;;;;;;;39.60;16.80;;;;;;;23.68;26.12;99701.09;5014852;28;20028;-62
2021/04/01 11:15:34;;;;;;;33.72;14.85;;;;;;;22.90;26.50;99693.38;5014303;28;20041;-62
2021/04/01 11:18:00;;;;;;;34.22;15.13;;;;;;;23.04;25.33;99694.13;5014805;28;20060;-62
2021/04/01 11:20:37;;;;;;;36.25;15.73;;;;;;;22.60;26.64;99695.75;4996716;28;20045;-62
2021/04/01 11:23:12;;;;;;;36.38;16.48;;;;;;;22.82;26.29;99696.88;5014842;28;20021;-62
2021/04/01 11:25:44;;;;;;;43.63;17.40;;;;;;;22.76;27.24;99692.63;5012897;28;20038;-63
2021/04/01 11:28:10;;;;;;;38.13;15.90;;;;;;;23.41;25.19;99697.50;5013522;28;20021;-63
2021/04/01 11:30:42;;;;;;;33.30;13.55;;;;;;;23.15;25.33;99693.84;5014265;28;20049;-63
2021/04/01 11:33:08;;;;;;;35.33;12.82;;;;;;;22.76;25.74;99692.63;5014652;28;20036;-62
2021/04/01 11:35:34;;;;;;;32.70;12.68;;;;;;;23.42;26.02;99699.09;5012741;28;20042;-63
2021/04/01 11:38:08;;;;;;;27.60;12.55;;;;;;;23.40;25.92;99693.13;5013421;28;20037;-65
2021/04/01 11:40:34;;;;;;;32.65;14.13;;;;;;;23.47;26.29;99696.22;5013317;28;20062;-64
2021/04/01 11:43:01;;;;;;;24.83;10.73;;;;;;;23.50;25.10;99704.94;4997269;28;20030;-64
2021/04/01 11:45:36;;;;;;;26.15;10.73;;;;;;;23.63;24.80;99699.31;5014091;28;20034;-63
2021/04/01 11:48:03;;;;;;;21.90;9.52;;;;;;;23.81;26.04;99702.94;5014253;28;20037;-63
2021/04/01 11:50:28;;;;;;;24.60;11.25;;;;;;;24.04;24.06;99697.34;5012706;28;20071;-63
2021/04/01 11:52:58;;;;;;;25.48;11.25;;;;;;;23.06;25.70;99687.53;5014325;28;20161;-63
2021/04/01 11:55:23;;;;;;;23.58;10.00;;;;;;;23.00;25.60;99692.34;5014214;28;20095;-63
2021/04/01 11:57:49;;;;;;;22.83;8.65;;;;;;;22.99;27.00;99690.72;5013883;28;20030;-63
2021/04/01 12:00:20;;;;;;;32.50;11.20;;;;;;;23.02;26.38;99682.69;5013734;28;20499;-63
2021/04/01 12:03:01;;;;;;;30.92;11.73;;;;;;;23.08;26.30;99683.34;5014156;28;20018;-63
2021/04/01 12:05:28;;;;;;;31.73;13.48;;;;;;;22.69;27.75;99675.88;5012305;28;20048;-63
2021/04/01 12:07:54;;;;;;;30.40;13.02;;;;;;;23.02;26.94;99690.09;5014169;28;20022;-63
2021/04/01 12:10:19;;;;;;;30.75;12.75;;;;;;;23.33;26.00;99686.53;5013427;28;20046;-63
2021/04/01 12:12:50;;;;;;;32.22;14.35;;;;;;;22.12;27.33;99690.06;5013898;28;20022;-63
2021/04/01 12:15:16;;;;;;;25.85;11.80;;;;;;;22.66;26.93;99677.31;5013365;28;20051;-63
2021/04/01 12:17:42;;;;;;;26.80;11.40;;;;;;;23.12;26.93;99689.81;5013607;28;20029;-64
2021/04/01 12:20:12;;;;;;;23.60;10.48;;;;;;;23.48;26.63;99675.94;5012276;28;20029;-63
2021/04/01 12:22:41;;;;;;;39.45;11.18;;;;;;;23.65;26.38;99685.31;5013729;28;20097;-63
2021/04/01 12:25:09;;;;;;;24.38;8.20;;;;;;;23.32;26.33;99688.44;5013185;28;20023;-63
2021/04/01 12:27:34;;;;;;;22.35;9.10;;;;;;;23.21;25.68;99679.72;5013576;28;20026;-63
2021/04/01 12:30:01;;;;;;;17.30;9.13;;;;;;;23.67;25.97;99675.69;5012274;28;20376;-63
2021/04/01 12:32:28;;;;;;;27.33;12.02;;;;;;;23.29;25.81;99671.84;5013185;28;20037;-63
2021/04/01 12:35:15;;;;;;;24.88;11.43;;;;;;;23.65;25.72;99674.38;5013545;28;20373;-65
2021/04/01 12:37:42;;;;;;;28.10;12.20;;;;;;;23.22;26.05;99672.34;5012145;28;20052;-64
2021/04/01 12:40:10;;;;;;;21.75;11.77;;;;;;;23.52;26.32;99667.13;5012002;28;20531;-63
2021/04/01 12:42:35;;;;;;;29.95;10.35;;;;;;;23.08;26.17;99666.94;5013515;28;20486;-63
2021/04/01 12:45:01;;;;;;;30.70;10.18;;;;;;;23.22;25.91;99670.41;5011631;28;20025;-63
2021/04/01 12:47:28;;;;;;;33.10;12.13;;;;;;;23.41;25.72;99664.69;5011386;28;20029;-63
2021/04/01 12:49:53;;;;;;;29.77;11.85;;;;;;;23.35;25.93;99668.66;5011975;28;20029;-63
2021/04/01 12:52:18;;;;;;;26.10;11.57;;;;;;;23.53;26.42;99660.50;4994913;28;20049;-63
2021/04/01 12:54:50;;;;;;;24.20;11.25;;;;;;;23.89;25.75;99658.34;5013057;28;20350;-63
2021/04/01 12:57:20;;;;;;;25.60;10.93;;;;;;;23.52;27.10;99662.44;5011312;28;20042;-63
2021/04/01 12:59:51;;;;;;;31.92;13.43;;;;;;;23.39;26.56;99655.97;5012148;28;20368;-63
2021/04/01 13:02:21;;;;;;;43.33;15.20;;;;;;;23.56;27.41;99665.34;5011297;28;20041;-64
2021/04/01 13:04:54;;;;;;;;;;;;;;;23.38;26.94;99654.34;5013422;28;20032;-63
2021/04/01 13:07:25;;;;;;;39.88;14.63;;;;;;;23.19;26.87;99656.56;5018199;28;19966;-63
2021/04/01 13:12:17;;;;;;;36.78;15.88;;;;;;;22.79;28.32;99642.84;5012676;28;20041;-63
2021/04/01 13:14:43;;;;;;;38.80;15.00;;;;;;;23.32;28.14;99650.16;5011745;28;20028;-63
2021/04/01 13:17:09;;;;;;;36.60;15.90;;;;;;;23.04;28.74;99649.59;5011350;28;20037;-63
2021/04/01 13:19:34;;;;;;;36.22;16.02;;;;;;;21.90;29.33;99645.25;5012832;28;20033;-63
2021/04/01 13:24:37;;;;;;;39.83;15.40;;;;;;;22.36;29.89;99646.09;5012681;28;20534;-63